Map

Track Data

SID SEASON NUMBER BASIN SUBBASIN NAME ISO_TIME NATURE LAT LON WMO_WIND WMO_PRES WMO_AGENCY TRACK_TYPE DIST2LAND LANDFALL IFLAG USA_AGENCY USA_ATCF_ID USA_LAT USA_LON USA_RECORD USA_STATUS USA_WIND USA_PRES USA_SSHS USA_R34_NE USA_R34_SE USA_R34_SW USA_R34_NW USA_R50_NE USA_R50_SE USA_R50_SW USA_R50_NW USA_R64_NE USA_R64_SE USA_R64_SW USA_R64_NW USA_POCI USA_ROCI USA_RMW USA_EYE TOKYO_LAT TOKYO_LON TOKYO_GRADE TOKYO_WIND TOKYO_PRES TOKYO_R50_DIR TOKYO_R50_LONG TOKYO_R50_SHORT TOKYO_R30_DIR TOKYO_R30_LONG TOKYO_R30_SHORT TOKYO_LAND CMA_LAT CMA_LON CMA_CAT CMA_WIND CMA_PRES HKO_LAT HKO_LON HKO_CAT HKO_WIND HKO_PRES NEWDELHI_LAT NEWDELHI_LON NEWDELHI_GRADE NEWDELHI_WIND NEWDELHI_PRES NEWDELHI_CI NEWDELHI_DP NEWDELHI_POCI REUNION_LAT REUNION_LON REUNION_TYPE REUNION_WIND REUNION_PRES REUNION_TNUM REUNION_CI REUNION_RMW REUNION_R34_NE REUNION_R34_SE REUNION_R34_SW REUNION_R34_NW REUNION_R50_NE REUNION_R50_SE REUNION_R50_SW REUNION_R50_NW REUNION_R64_NE REUNION_R64_SE REUNION_R64_SW REUNION_R64_NW BOM_LAT BOM_LON BOM_TYPE BOM_WIND BOM_PRES BOM_TNUM BOM_CI BOM_RMW BOM_R34_NE BOM_R34_SE BOM_R34_SW BOM_R34_NW BOM_R50_NE BOM_R50_SE BOM_R50_SW BOM_R50_NW BOM_R64_NE BOM_R64_SE BOM_R64_SW BOM_R64_NW BOM_ROCI BOM_POCI BOM_EYE BOM_POS_METHOD BOM_PRES_METHOD NADI_LAT NADI_LON NADI_CAT NADI_WIND NADI_PRES WELLINGTON_LAT WELLINGTON_LON WELLINGTON_WIND WELLINGTON_PRES DS824_LAT DS824_LON DS824_STAGE DS824_WIND DS824_PRES TD9636_LAT TD9636_LON TD9636_STAGE TD9636_WIND TD9636_PRES TD9635_LAT TD9635_LON TD9635_WIND TD9635_PRES TD9635_ROCI NEUMANN_LAT NEUMANN_LON NEUMANN_CLASS NEUMANN_WIND NEUMANN_PRES MLC_LAT MLC_LON MLC_CLASS MLC_WIND MLC_PRES USA_GUST BOM_GUST BOM_GUST_PER REUNION_GUST REUNION_GUST_PER USA_SEAHGT USA_SEARAD_NE USA_SEARAD_SE USA_SEARAD_SW USA_SEARAD_NW STORM_SPEED STORM_DIR
1934001S11074 1934 1 SI MM NOT_NAMED 1934-01-01 06:00:00 NR -10.9000 74.3000 reunion main 2006 2006 _____O________ -1 -10.9000 74.3000 99 9.90000 2 210
1934001S11074 1934 1 SI MM NOT_NAMED 1934-01-01 09:00:00 NR -10.9689 74.2538 main 2017 2017 _____P________ -1 -10.9689 74.2538 99 2 214
1934001S11074 1934 1 SI MM NOT_NAMED 1934-01-01 12:00:00 NR -11.0466 74.2026 main 2021 2021 _____P________ -1 -11.0466 74.2026 99 2 213
1934001S11074 1934 1 SI MM NOT_NAMED 1934-01-01 15:00:00 NR -11.1422 74.1411 main 2023 2011 _____P________ -1 -11.1422 74.1411 99 3 212
1934001S11074 1934 1 SI MM NOT_NAMED 1934-01-01 18:00:00 NR -11.2646 74.0643 main 2011 1996 _____P________ -1 -11.2646 74.0643 99 3 211
1934001S11074 1934 1 SI MM NOT_NAMED 1934-01-01 21:00:00 NR -11.4226 73.9670 main 1996 1975 _____P________ -1 -11.4226 73.9670 99 4 211
1934001S11074 1934 1 SI MM NOT_NAMED 1934-01-02 00:00:00 NR -11.6252 73.8441 main 1965 1939 _____P________ -1 -11.6252 73.8441 99 5 210
1934001S11074 1934 1 SI MM NOT_NAMED 1934-01-02 03:00:00 NR -11.8814 73.6902 main 1939 1903 _____P________ -1 -11.8814 73.6902 99 7 210
1934001S11074 1934 1 SI MM NOT_NAMED 1934-01-02 06:00:00 NR -12.2000 73.5000 reunion main 1903 1862 _____O________ -1 -12.2000 73.5000 99 9.90000 8 210
1934001S11074 1934 1 SI MM NOT_NAMED 1934-01-02 09:00:00 NR -12.5859 73.2702 main 1862 1812 _____P________ -1 -12.5859 73.2702 99 10 210
1934001S11074 1934 1 SI MM NOT_NAMED 1934-01-02 12:00:00 NR -13.0279 73.0057 main 1812 1757 _____P________ -1 -13.0279 73.0057 99 11 210
1934001S11074 1934 1 SI MM NOT_NAMED 1934-01-02 15:00:00 NR -13.5107 72.7138 main 1757 1703 _____P________ -1 -13.5107 72.7138 99 12 211
1934001S11074 1934 1 SI MM NOT_NAMED 1934-01-02 18:00:00 NR -14.0188 72.4016 main 1703 1649 _____P________ -1 -14.0188 72.4016 99 12 211
1934001S11074 1934 1 SI MM NOT_NAMED 1934-01-02 21:00:00 NR -14.5371 72.0766 main 1649 1596 _____P________ -1 -14.5371 72.0766 99 12 212
1934001S11074 1934 1 SI MM NOT_NAMED 1934-01-03 00:00:00 NR -15.0501 71.7462 main 1582 1535 _____P________ -1 -15.0501 71.7462 99 12 212
1934001S11074 1934 1 SI MM NOT_NAMED 1934-01-03 03:00:00 NR -15.5428 71.4181 main 1535 1484 _____P________ -1 -15.5428 71.4181 99 11 213
1934001S11074 1934 1 SI MM NOT_NAMED 1934-01-03 06:00:00 NR -16.0000 71.1000 reunion main 1484 1439 _____O________ -1 -16.0000 71.1000 99 9.90000 10 214
1934001S11074 1934 1 SI MM NOT_NAMED 1934-01-03 09:00:00 NR -16.3797 70.8300 main 1439 1408 _____P________ -1 -16.3797 70.8300 99 9 215
1934001S11074 1934 1 SI MM NOT_NAMED 1934-01-03 12:00:00 NR -16.7318 70.5677 main 1408 1367 _____P________ -1 -16.7318 70.5677 99 8 216
1934001S11074 1934 1 SI MM NOT_NAMED 1934-01-03 15:00:00 NR -17.0588 70.3103 main 1363 1337 _____P________ -1 -17.0588 70.3103 99 8 218
1934001S11074 1934 1 SI MM NOT_NAMED 1934-01-03 18:00:00 NR -17.3631 70.0550 main 1334 1297 _____P________ -1 -17.3631 70.0550 99 8 220
1934001S11074 1934 1 SI MM NOT_NAMED 1934-01-03 21:00:00 NR -17.6471 69.7991 main 1297 1268 _____P________ -1 -17.6471 69.7991 99 7 222
1934001S11074 1934 1 SI MM NOT_NAMED 1934-01-04 00:00:00 NR -17.9130 69.5399 main 1258 1232 _____P________ -1 -17.9130 69.5399 99 7 224
1934001S11074 1934 1 SI MM NOT_NAMED 1934-01-04 03:00:00 NR -18.1632 69.2745 main 1229 1193 _____P________ -1 -18.1632 69.2745 99 7 227
1934001S11074 1934 1 SI MM NOT_NAMED 1934-01-04 06:00:00 NR -18.4000 69.0000 reunion main 1193 1158 _____O________ -1 -18.4000 69.0000 99 9.90000 7 228
1934001S11074 1934 1 SI MM NOT_NAMED 1934-01-04 09:00:00 NR -18.6404 68.7223 main 1158 1131 _____P________ -1 -18.6404 68.7223 99 7 229
1934001S11074 1934 1 SI MM NOT_NAMED 1934-01-04 12:00:00 NR -18.8644 68.4385 main 1121 1096 _____P________ -1 -18.8644 68.4385 99 7 231
1934001S11074 1934 1 SI MM NOT_NAMED 1934-01-04 15:00:00 NR -19.0745 68.1466 main 1086 1062 _____P________ -1 -19.0745 68.1466 99 7 234
1934001S11074 1934 1 SI MM NOT_NAMED 1934-01-04 18:00:00 NR -19.2731 67.8449 main 1051 1017 _____P________ -1 -19.2731 67.8449 99 7 236
1934001S11074 1934 1 SI MM NOT_NAMED 1934-01-04 21:00:00 NR -19.4625 67.5313 main 1017 985 _____P________ -1 -19.4625 67.5313 99 7 238
1934001S11074 1934 1 SI MM NOT_NAMED 1934-01-05 00:00:00 NR -19.6453 67.2040 main 985 951 _____P________ -1 -19.6453 67.2040 99 7 240
1934001S11074 1934 1 SI MM NOT_NAMED 1934-01-05 03:00:00 NR -19.8236 66.8609 main 951 908 _____P________ -1 -19.8236 66.8609 99 8 242
1934001S11074 1934 1 SI MM NOT_NAMED 1934-01-05 06:00:00 NR -20.0000 66.5000 reunion main 908 876 _____O________ -1 -20.0000 66.5000 99 9.90000 8 242
1934001S11074 1934 1 SI MM NOT_NAMED 1934-01-05 09:00:00 NR -20.1890 66.1428 main 865 844 _____P________ -1 -20.1890 66.1428 99 6 251
1934001S11074 1934 1 SI MM NOT_NAMED 1934-01-05 12:00:00 NR -20.1996 65.8961 main 844 792 _____P____O___ -1 -20.3745 65.7701 99 -19.5000 66.4000 7 7 257
1934001S11074 1934 1 SI MM NOT_NAMED 1934-01-05 15:00:00 NR -20.3491 65.4123 main 792 729 _____P____P___ -1 -20.5563 65.3798 99 -19.9348 65.4773 7 11 250
1934001S11074 1934 1 SI MM NOT_NAMED 1934-01-05 18:00:00 NR -20.5667 64.8077 main 729 668 _____P____P___ -1 -20.7341 64.9702 99 -20.3435 64.5910 7 13 249
1934001S11074 1934 1 SI MM NOT_NAMED 1934-01-05 21:00:00 NR -20.8064 64.1618 main 668 608 _____P____P___ -1 -20.9076 64.5394 99 -20.7053 63.7841 7 13 249
1934001S11074 1934 1 SI MM NOT_NAMED 1934-01-06 00:00:00 TS -21.0341 63.5379 main 598 549 _____P___OO___ -1 -21.0767 64.0854 99 -21.0000 63.1000 TC 65 -21.0000 63.1000 4 12 249
1934001S11074 1934 1 SI MM NOT_NAMED 1934-01-06 03:00:00 TS -21.2128 62.9967 main 549 503 _____P___PP___ -1 -21.2409 63.6062 99 -21.1503 62.6427 TC 65 -21.2159 62.5642 4 10 251
1934001S11074 1934 1 SI MM NOT_NAMED 1934-01-06 06:00:00 TS -21.3623 62.5017 reunion main 503 466 _____O___OP___ -1 -21.4000 63.1000 99 9.90000 -21.3000 62.2000 TC 65 -21.3713 62.1297 4 10 252
1934001S11074 1934 1 SI MM NOT_NAMED 1934-01-06 09:00:00 TS -21.5077 62.0249 main 456 420 _____P___PP___ -1 -21.5820 62.5720 99 -21.4497 61.7723 TC 65 -21.4913 61.7304 4 9 252
1934001S11074 1934 1 SI MM NOT_NAMED 1934-01-06 12:00:00 TS -21.6538 61.5384 main 414 371 _____P___OO___ -1 -21.7614 62.0153 99 -21.6000 61.3000 TC 65 -21.6000 61.3000 4 10 253
1934001S11074 1934 1 SI MM NOT_NAMED 1934-01-06 15:00:00 TS -21.8130 60.9679 main 371 320 _____P___PP___ -1 -21.9331 61.4338 99 -21.7575 60.7225 TC 65 -21.7484 60.7474 4 11 254
1934001S11074 1934 1 SI MM NOT_NAMED 1934-01-06 18:00:00 TS -21.9598 60.3615 main 326 281 _____P___OP___ -1 -22.0920 60.8315 99 -21.9000 60.1000 TC 65 -21.8873 60.1528 4 12 256
1934001S11074 1934 1 SI MM NOT_NAMED 1934-01-06 21:00:00 TS -22.0851 59.7481 main 273 245 _____P___PP___ -1 -22.2331 60.2127 99 -22.0148 59.4999 TC 65 -22.0076 59.5318 4 12 259
1934001S11074 1934 1 SI MM NOT_NAMED 1934-01-07 00:00:00 TS -22.1838 59.1272 main 239 211 _____P___OO___ -1 -22.3513 59.5816 99 -22.1000 58.9000 TC 65 -22.1000 58.9000 4 12 261
1934001S11074 1934 1 SI MM NOT_NAMED 1934-01-07 03:00:00 TS -22.2585 58.5174 main 217 202 _____P___PP___ -1 -22.4419 58.9425 99 -22.1647 58.3075 TC 65 -22.1688 58.3023 4 11 264
1934001S11074 1934 1 SI MM NOT_NAMED 1934-01-07 06:00:00 TS -22.3028 57.8983 reunion main 202 190 _____O___OP___ -1 -22.5000 58.3000 99 9.90000 -22.2000 57.7000 TC 65 -22.2083 57.6949 4 12 267
1934001S11074 1934 1 SI MM NOT_NAMED 1934-01-07 09:00:00 TS -22.3175 57.2650 main 190 138 _____P___PP___ -1 -22.5192 57.6573 99 -22.2146 57.0725 TC 65 -22.2186 57.0651 4 12 270
1934001S11074 1934 1 SI MM NOT_NAMED 1934-01-07 12:00:00 TS -22.3020 56.6022 main 138 105 _____P___OO___ -1 -22.5059 57.0067 99 -22.2000 56.4000 TC 65 -22.2000 56.4000 4 13 272
1934001S11074 1934 1 SI MM NOT_NAMED 1934-01-07 15:00:00 TS -22.2627 55.8876 main 105 89 _____P___PP___ -1 -22.4646 56.3530 99 -22.1649 55.6650 TC 65 -22.1587 55.6449 4 13 275
1934001S11074 1934 1 SI MM NOT_NAMED 1934-01-07 18:00:00 TS -22.1963 55.1542 main 98 98 _____P___OP___ -1 -22.3999 55.7009 99 -22.1000 54.9000 TC 65 -22.0889 54.8619 4 14 277
1934001S11074 1934 1 SI MM NOT_NAMED 1934-01-07 21:00:00 TS -22.1078 54.4218 main 129 129 _____P___PP___ -1 -22.3163 55.0550 99 -22.0076 54.1124 TC 65 -21.9994 54.0980 4 13 278
1934001S11074 1934 1 SI MM NOT_NAMED 1934-01-08 00:00:00 TS -22.0062 53.7400 main 182 182 _____P___OO___ -1 -22.2186 54.4200 99 -21.9000 53.4000 TC 65 -21.9000 53.4000 4 12 280
1934001S11074 1934 1 SI MM NOT_NAMED 1934-01-08 03:00:00 TS -21.9068 53.1652 main 225 225 _____P___PP___ -1 -22.1116 53.8002 99 -21.7995 52.8627 TC 65 -21.8094 52.8327 4 10 281
1934001S11074 1934 1 SI MM NOT_NAMED 1934-01-08 06:00:00 TS -21.8042 52.6444 reunion main 280 280 _____O___OP___ -1 -22.0000 53.2000 99 9.90000 -21.7000 52.4000 TC 65 -21.7127 52.3332 4 10 282
1934001S11074 1934 1 SI MM NOT_NAMED 1934-01-08 09:00:00 TS -21.7007 52.1160 main 327 327 _____P___PP___ -1 -21.8925 52.5735 99 -21.5998 51.9076 TC 65 -21.6097 51.8671 4 10 282
1934001S11074 1934 1 SI MM NOT_NAMED 1934-01-08 12:00:00 TS -21.5918 51.5862 main 338 285 _____P___OO___ -1 -21.7755 51.9585 99 -21.5000 51.4000 TC 65 -21.5000 51.4000 4 10 282
1934001S11074 1934 1 SI MM NOT_NAMED 1934-01-08 15:00:00 TS -21.4820 51.0322 main 275 222 _____P___PP___ -1 -21.6528 51.3640 99 -21.4075 50.8501 TC 65 -21.3859 50.8824 4 10 283
1934001S11074 1934 1 SI MM NOT_NAMED 1934-01-08 18:00:00 TS -21.3643 50.4854 main 222 167 _____P___OP___ -1 -21.5286 50.7985 99 -21.3000 50.3000 TC 65 -21.2645 50.3578 4 10 284
1934001S11074 1934 1 SI MM NOT_NAMED 1934-01-08 21:00:00 TS -21.2358 49.9642 main 167 114 _____P___PP___ -1 -21.4069 50.2708 99 -21.1648 49.7926 TC 65 -21.1358 49.8293 4 10 286
1934001S11074 1934 1 SI MM NOT_NAMED 1934-01-09 00:00:00 TS -21.0973 49.4632 main 114 61 _____P___OO___ -1 -21.2920 49.7894 99 -21.0000 49.3000 TC 65 -21.0000 49.3000 4 10 289
1934001S11074 1934 1 SI MM NOT_NAMED 1934-01-09 03:00:00 TS -20.9307 48.9869 main 61 20 _____P___PP___ -1 -21.1883 49.3630 99 -20.7923 48.8074 TC 65 -20.8117 48.7903 4 9 290
1934001S11074 1934 1 SI MM NOT_NAMED 1934-01-09 06:00:00 TS -20.7746 48.5262 reunion main 10 0 _____O___OP___ -1 -21.1000 49.0000 99 9.90000 -20.6000 48.3000 TC 65 -20.6238 48.2785 4 9 288
1934001S11074 1934 1 SI MM NOT_NAMED 1934-01-09 09:00:00 TS -20.6541 48.0962 main 0 0 _____P___PP___ -1 -21.0260 48.7299 99 -20.4547 47.7724 TC 65 -20.4741 47.7525 4 8 283
1934001S11074 1934 1 SI MM NOT_NAMED 1934-01-09 12:00:00 TS -20.5940 47.6659 main 0 0 _____P___OO___ -1 -20.9659 48.5260 99 -20.4000 47.2000 TC 65 -20.4000 47.2000 4 8 272
1934001S11074 1934 1 SI MM NOT_NAMED 1934-01-09 15:00:00 TS -20.6217 47.2012 main 0 0 _____P___PP___ -1 -20.9199 48.3741 99 -20.4625 46.5577 TC 65 -20.4588 46.5649 4 9 263
1934001S11074 1934 1 SI MM NOT_NAMED 1934-01-09 18:00:00 TS -20.7029 46.7332 main 0 0 _____P___OP___ -1 -20.8880 48.2600 99 -20.6000 45.9000 TC 65 -20.5911 45.9074 4 9 258
1934001S11074 1934 1 SI MM NOT_NAMED 1934-01-09 21:00:00 TS -20.8040 46.2815 main 0 0 _____P___PP___ -1 -20.8702 48.1696 99 -20.7575 45.2627 TC 65 -20.7527 45.2709 4 8 256
1934001S11074 1934 1 SI MM NOT_NAMED 1934-01-10 00:00:00 TS -20.8983 45.8718 main 0 0 _____P___OO___ -1 -20.8663 48.0888 99 -20.9000 44.7000 TC 65 -20.9000 44.7000 4 7 259
1934001S11074 1934 1 SI MM NOT_NAMED 1934-01-10 03:00:00 TS -20.9419 45.5375 main 0 0 _____P___PP___ -1 -20.8763 48.0036 99 -20.9647 44.2623 TC 65 -20.9660 44.2647 4 6 263
1934001S11074 1934 1 SI MM NOT_NAMED 1934-01-10 06:00:00 TS -20.9710 45.2322 reunion main 0 0 _____O___OP___ -1 -20.9000 47.9000 99 9.90000 -21.0000 43.9000 TC 65 -21.0131 43.8967 4 6 265
1934001S11074 1934 1 SI MM NOT_NAMED 1934-01-10 09:00:00 TS -20.9979 44.8956 main 0 0 _________PP___ -1 99 -21.0498 43.5575 TC 65 -21.0538 43.5554 4 7 265
1934001S11074 1934 1 SI MM NOT_NAMED 1934-01-10 12:00:00 TS -21.0284 44.5328 main 0 0 _________OO___ -1 99 -21.1000 43.2000 TC 65 -21.1000 43.2000 4 7 265
1934001S11074 1934 1 SI MM NOT_NAMED 1934-01-10 15:00:00 TS -21.0586 44.1094 main 0 0 _________PP___ -1 99 -21.1425 42.7649 TC 65 -21.1473 42.7792 4 10 265
1934001S11074 1934 1 SI MM NOT_NAMED 1934-01-10 18:00:00 TS -21.1180 43.4156 main 35 35 _________OP___ -1 99 -21.2000 42.3000 TC 65 -21.2046 42.3367 4 14 264
1934001S11074 1934 1 SI MM NOT_NAMED 1934-01-10 21:00:00 TS -21.2092 42.6695 main 85 85 _________PP___ -1 99 -21.2848 41.8574 TC 65 -21.2847 41.8759 4 15 261
1934001S11074 1934 1 SI MM NOT_NAMED 1934-01-11 00:00:00 TS -21.3477 41.8460 main 173 168 _________OO___ -1 99 -21.4000 41.4000 TC 65 -21.4000 41.4000 4 17 259
1934001S11074 1934 1 SI MM NOT_NAMED 1934-01-11 03:00:00 TS -21.5276 40.8945 main 249 249 _________PP___ -1 99 -21.5274 40.9073 TC 65 -21.5279 40.8818 4 14 256
1934001S11074 1934 1 SI MM NOT_NAMED 1934-01-11 06:00:00 TS -21.6978 40.3774 reunion main 294 294 _________OP___ -1 99 -21.7000 40.4000 TC 65 -21.6956 40.3548 4 10 248
1934001S11074 1934 1 SI MM NOT_NAMED 1934-01-11 09:00:00 TS -21.9177 39.8639 main 341 341 _________PP___ -1 99 -21.9200 39.8775 TC 65 -21.9155 39.8504 4 10 241
1934001S11074 1934 1 SI MM NOT_NAMED 1934-01-11 12:00:00 TS -22.2000 39.4000 main 391 351 _________OO___ -1 99 -22.2000 39.4000 TC 65 -22.2000 39.4000 4 10 232
1934001S11074 1934 1 SI MM NOT_NAMED 1934-01-11 15:00:00 TS -22.5422 39.0075 main 351 317 _________PP___ -1 99 -22.5123 39.0123 TC 65 -22.5720 39.0026 4 10 221
1934001S11074 1934 1 SI MM NOT_NAMED 1934-01-11 18:00:00 TS -22.9523 38.6831 main 317 289 _________OP___ -1 99 -22.9000 38.7000 TC 65 -23.0045 38.6661 4 11 212
1934001S11074 1934 1 SI MM NOT_NAMED 1934-01-11 21:00:00 TS -23.4299 38.4045 main 291 274 _________PP___ -1 99 -23.4000 38.4126 TC 65 -23.4598 38.3964 4 11 205
1934001S11074 1934 1 SI MM NOT_NAMED 1934-01-12 00:00:00 TS -23.9000 38.2000 main 274 263 _________OO___ -1 99 -23.9000 38.2000 TC 65 -23.9000 38.2000 4 9 200
1934001S11074 1934 1 SI MM NOT_NAMED 1934-01-12 03:00:00 TS -24.2677 38.0616 main 264 254 _________PP___ -1 99 -24.2724 38.0623 TC 65 -24.2630 38.0610 4 7 195
1934001S11074 1934 1 SI MM NOT_NAMED 1934-01-12 06:00:00 TS -24.6035 37.9970 reunion main 259 259 _________OP___ -1 99 -24.6000 38.0000 TC 65 -24.6071 37.9940 4 7 187
1934001S11074 1934 1 SI MM NOT_NAMED 1934-01-12 09:00:00 TS -24.9450 37.9788 main 268 268 _________PP___ -1 99 -24.9425 37.9774 TC 65 -24.9476 37.9801 4 7 179
1934001S11074 1934 1 SI MM NOT_NAMED 1934-01-12 12:00:00 TS -25.3000 38.0000 main 285 285 _________OO___ -1 99 -25.3000 38.0000 TC 65 -25.3000 38.0000 4 7 176
1934001S11074 1934 1 SI MM NOT_NAMED 1934-01-12 15:00:00 TS -25.6843 38.0397 main 308 308 _________PP___ -1 99 -25.6925 38.0425 TC 65 -25.6761 38.0370 4 8 174
1934001S11074 1934 1 SI MM NOT_NAMED 1934-01-12 18:00:00 TS -26.0863 38.0925 main 344 344 _________OP___ -1 99 -26.1000 38.1000 TC 65 -26.0727 38.0850 4 3 107
1934001S11074 1934 1 SI MM NOT_NAMED 1934-01-12 21:00:00 TS -25.7833 38.4069 main 348 336 _________PP___ -1 99 -26.5025 38.1525 TC 65 -26.4830 38.1405 4 11 27
1934001S11074 1934 1 SI MM NOT_NAMED 1934-01-13 00:00:00 TS -25.0928 38.6555 main 342 328 _________OO___ -1 99 -26.9000 38.2000 TC 65 -26.9000 38.2000 4 22 10
1934001S11074 1934 1 SI MM NOT_NAMED 1934-01-13 03:00:00 NR -23.6386 38.8242 main 336 314 ______________ -1 99 TC 4 11 357
1934001S11074 1934 1 SI MM NOT_NAMED 1934-01-13 06:00:00 NR -24.0000 38.6000 reunion main 314 294 _____O________ -1 -24.0000 38.6000 99 9.90000 4 8 213
1934001S11074 1934 1 SI MM NOT_NAMED 1934-01-13 09:00:00 NR -24.3085 38.3493 main 284 277 _____P________ -1 -24.2798 38.3801 99 4 8 213
1934001S11074 1934 1 SI MM NOT_NAMED 1934-01-13 12:00:00 NR -24.6253 38.1473 main 269 264 _____P________ -1 -24.5810 38.1951 99 7 206
1934001S11074 1934 1 SI MM NOT_NAMED 1934-01-13 15:00:00 NR -24.9558 38.0068 main 271 271 _____P________ -1 -24.9065 38.0603 99 7 195
1934001S11074 1934 1 SI MM NOT_NAMED 1934-01-13 18:00:00 NR -25.3054 37.9411 main 276 276 _____P________ -1 -25.2592 37.9914 99 7 182
1934001S11074 1934 1 SI MM NOT_NAMED 1934-01-13 21:00:00 NR -25.6794 37.9636 main 308 308 _____P________ -1 -25.6421 38.0043 99 8 171
1934001S11074 1934 1 SI MM NOT_NAMED 1934-01-14 00:00:00 NR -26.0832 38.0881 main 344 344 _____P________ -1 -26.0581 38.1154 99 9 159
1934001S11074 1934 1 SI MM NOT_NAMED 1934-01-14 03:00:00 NR -26.5218 38.3286 main 384 384 _____P________ -1 -26.5099 38.3415 99 11 149
1934001S11074 1934 1 SI MM NOT_NAMED 1934-01-14 06:00:00 NR -27.0000 38.7000 reunion main 448 448 _____O________ -1 -27.0000 38.7000 99 9.90000 13 142
1934001S11074 1934 1 SI MM NOT_NAMED 1934-01-14 09:00:00 NR -27.5204 39.2127 main 521 521 _____P________ -1 -27.5290 39.2035 99 15 136
1934001S11074 1934 1 SI MM NOT_NAMED 1934-01-14 12:00:00 NR -28.0780 39.8570 main 534 524 _____P________ -1 -28.0917 39.8423 99 17 133
1934001S11074 1934 1 SI MM NOT_NAMED 1934-01-14 15:00:00 NR -28.6656 40.6178 main 533 523 _____P________ -1 -28.6816 40.6006 99 19 130
1934001S11074 1934 1 SI MM NOT_NAMED 1934-01-14 18:00:00 NR -29.2758 41.4795 main 530 525 _____P________ -1 -29.2917 41.4626 99 20 128
1934001S11074 1934 1 SI MM NOT_NAMED 1934-01-14 21:00:00 NR -29.9014 42.4258 main 550 546 _____P________ -1 -29.9152 42.4114 99 21 127
1934001S11074 1934 1 SI MM NOT_NAMED 1934-01-15 00:00:00 NR -30.5352 43.4400 main 574 574 _____P________ -1 -30.5453 43.4296 99 22 125
1934001S11074 1934 1 SI MM NOT_NAMED 1934-01-15 03:00:00 NR -31.1702 44.5043 main 628 627 _____P________ -1 -31.1755 44.4988 99 22 124
1934001S11074 1934 1 SI MM NOT_NAMED 1934-01-15 06:00:00 NR -31.8000 45.6000 reunion main 692 _____O________ -1 -31.8000 45.6000 99 9.90000 23 124

About IBTrACS Database

This database is a web-friendly format of International Best Track Archive for Climate Stewardship (IBTrACS), a global best track data archive curated by NOAA dating back to 1842.

Updated: 2021-11-26